createdAt,value
2023-03-27T00:01:30.771Z,33.30
2023-03-27T00:03:57.837Z,36.20
2023-03-27T00:06:27.606Z,36.20
2023-03-27T00:08:54.562Z,34.80
2023-03-27T00:11:25.198Z,34.50
2023-03-27T00:13:54.766Z,35.30
2023-03-27T00:18:50.344Z,37.10
2023-03-27T00:21:17.382Z,38.40
2023-03-27T00:23:44.555Z,36.10
2023-03-27T00:26:15.583Z,35.90
2023-03-27T00:28:42.560Z,40.00
2023-03-27T00:31:14.465Z,41.20
2023-03-27T00:33:42.165Z,49.00
2023-03-27T00:36:10.421Z,46.70
2023-03-27T00:38:37.399Z,40.90
2023-03-27T00:41:05.212Z,39.90
2023-03-27T00:43:36.634Z,38.50
2023-03-27T00:46:18.936Z,37.10
2023-03-27T00:48:50.274Z,37.00
2023-03-27T00:51:20.104Z,36.90
2023-03-27T00:56:16.820Z,36.80
2023-03-27T00:58:51.439Z,36.50
2023-03-27T01:01:20.230Z,35.90
2023-03-27T01:03:49.504Z,34.80
2023-03-27T01:06:17.551Z,36.20
2023-03-27T01:08:46.277Z,35.90
2023-03-27T01:11:13.292Z,35.50
2023-03-27T01:13:43.111Z,33.50
2023-03-27T01:16:23.362Z,33.80
2023-03-27T01:18:59.324Z,48.10
2023-03-27T01:21:54.104Z,51.60
2023-03-27T01:25:04.457Z,44.50
2023-03-27T01:27:58.761Z,42.70
2023-03-27T01:30:32.039Z,37.10
2023-03-27T01:33:01.956Z,37.40
2023-03-27T01:35:38.024Z,40.70
2023-03-27T01:38:11.077Z,36.90
2023-03-27T01:41:06.477Z,38.40
2023-03-27T01:43:51.950Z,36.60
2023-03-27T01:46:28.752Z,35.10
2023-03-27T01:49:02.970Z,34.90
2023-03-27T01:51:39.826Z,36.50
2023-03-27T01:54:24.965Z,37.70
2023-03-27T01:57:04.779Z,35.40
2023-03-27T01:59:36.694Z,33.70
2023-03-27T02:02:10.608Z,33.10
2023-03-27T02:05:01.406Z,32.30
2023-03-27T02:07:42.778Z,32.20
2023-03-27T02:10:15.497Z,30.00
2023-03-27T02:12:53.151Z,30.70
2023-03-27T02:18:13.104Z,29.00
2023-03-27T02:20:41.821Z,31.00
2023-03-27T02:23:08.995Z,30.10
2023-03-27T02:25:38.449Z,30.20
2023-03-27T02:28:24.094Z,29.70
2023-03-27T02:31:31.507Z,31.40
2023-03-27T02:34:13.581Z,31.30
2023-03-27T02:37:02.366Z,34.20
2023-03-27T02:40:10.469Z,34.00
2023-03-27T02:43:03.240Z,31.60
2023-03-27T02:46:05.644Z,32.90
2023-03-27T02:48:42.429Z,31.10
2023-03-27T02:51:11.746Z,35.30
2023-03-27T02:53:46.896Z,39.30
2023-03-27T02:56:16.532Z,35.30
2023-03-27T02:59:11.594Z,31.50
2023-03-27T03:01:41.217Z,33.30
2023-03-27T03:04:28.591Z,33.90
2023-03-27T03:07:07.259Z,32.60
2023-03-27T03:09:34.777Z,33.50
2023-03-27T03:12:08.394Z,37.30
2023-03-27T03:14:44.339Z,32.70
2023-03-27T03:17:12.632Z,32.60
2023-03-27T03:19:39.498Z,34.30
2023-03-27T03:22:07.046Z,32.50
2023-03-27T03:24:35.830Z,31.20
2023-03-27T03:27:05.958Z,33.80
2023-03-27T03:29:40.597Z,32.70
2023-03-27T03:32:13.342Z,33.60
2023-03-27T03:34:41.804Z,32.00
2023-03-27T03:37:11.265Z,33.90
2023-03-27T03:39:38.235Z,32.70
2023-03-27T03:42:06.087Z,32.10
2023-03-27T03:44:34.773Z,31.20
2023-03-27T03:47:09.257Z,29.50
2023-03-27T03:49:36.100Z,30.80
2023-03-27T03:52:04.728Z,30.90
2023-03-27T03:54:33.150Z,30.10
2023-03-27T03:57:00.211Z,30.80
2023-03-27T03:59:27.344Z,31.70
2023-03-27T04:02:29.799Z,33.50
2023-03-27T04:05:08.429Z,31.80
2023-03-27T04:07:36.438Z,32.80
2023-03-27T04:10:41.031Z,35.40
2023-03-27T04:13:14.769Z,32.70
2023-03-27T04:15:51.598Z,33.30
2023-03-27T04:18:35.721Z,36.70
2023-03-27T04:21:06.997Z,33.40
2023-03-27T04:23:34.007Z,32.40
2023-03-27T04:26:03.450Z,34.60
2023-03-27T04:28:55.987Z,33.00
2023-03-27T04:31:55.510Z,35.80
2023-03-27T04:34:50.402Z,31.30
2023-03-27T04:37:36.271Z,29.60
2023-03-27T04:40:22.031Z,33.10
2023-03-27T04:42:50.431Z,36.00
2023-03-27T04:45:20.655Z,34.90
2023-03-27T04:47:49.233Z,32.80
2023-03-27T04:50:16.543Z,33.00
2023-03-27T04:52:44.983Z,35.30
2023-03-27T04:55:12.462Z,34.50
2023-03-27T04:57:41.987Z,40.30
2023-03-27T05:00:17.255Z,42.80
2023-03-27T05:02:47.968Z,34.90
2023-03-27T05:05:20.698Z,30.60
2023-03-27T05:07:49.726Z,32.80
2023-03-27T05:10:21.544Z,31.20
2023-03-27T05:12:51.543Z,33.30
2023-03-27T05:15:19.458Z,33.20
2023-03-27T05:17:54.566Z,29.70
2023-03-27T05:20:24.352Z,31.50
2023-03-27T05:22:56.529Z,30.70
2023-03-27T05:25:28.886Z,28.50
2023-03-27T05:27:56.449Z,32.50
2023-03-27T05:30:27.139Z,30.70
2023-03-27T05:33:09.629Z,32.30
2023-03-27T05:35:37.935Z,33.50
2023-03-27T05:38:06.747Z,34.00
2023-03-27T05:40:35.898Z,35.80
2023-03-27T05:43:04.225Z,35.00
2023-03-27T05:45:32.699Z,34.20
2023-03-27T05:48:02.912Z,34.90
2023-03-27T05:50:34.786Z,33.00
2023-03-27T05:53:11.258Z,34.10
2023-03-27T05:55:42.565Z,37.00
2023-03-27T05:58:11.924Z,38.10
2023-03-27T06:00:44.446Z,37.70
2023-03-27T06:03:17.431Z,36.80
2023-03-27T06:06:00.313Z,37.10
2023-03-27T06:08:29.951Z,38.60
2023-03-27T06:10:57.798Z,41.70
2023-03-27T06:13:32.126Z,45.90
2023-03-27T06:16:07.615Z,49.10
2023-03-27T06:18:54.537Z,37.90
2023-03-27T06:21:22.837Z,37.60
2023-03-27T06:23:50.520Z,29.90
2023-03-27T06:26:18.904Z,29.00
2023-03-27T06:28:46.290Z,25.20
2023-03-27T06:31:15.025Z,23.40
2023-03-27T06:34:15.309Z,21.30
2023-03-27T06:37:08.391Z,21.30
2023-03-27T06:39:39.172Z,17.30
2023-03-27T06:42:06.065Z,17.80
2023-03-27T06:44:45.754Z,15.80
2023-03-27T06:47:24.289Z,15.70
2023-03-27T06:50:24.539Z,15.20
2023-03-27T06:55:37.995Z,12.70
2023-03-27T06:58:04.961Z,11.40
2023-03-27T07:00:35.508Z,10.70
2023-03-27T07:03:32.437Z,11.20
2023-03-27T07:06:19.557Z,11.50
2023-03-27T07:08:57.654Z,9.30
2023-03-27T07:11:25.657Z,9.20
2023-03-27T07:13:58.102Z,9.20
2023-03-27T07:16:27.523Z,9.90
2023-03-27T07:18:54.831Z,10.50
2023-03-27T07:21:23.236Z,9.70
2023-03-27T07:23:50.305Z,10.20
2023-03-27T07:26:27.601Z,10.20
2023-03-27T07:29:00.777Z,10.40
2023-03-27T07:31:48.976Z,9.80
2023-03-27T07:34:16.978Z,11.00
2023-03-27T07:37:07.290Z,9.50
2023-03-27T07:39:34.278Z,8.10
2023-03-27T07:42:01.567Z,9.10
2023-03-27T07:44:48.215Z,8.40
2023-03-27T07:47:15.253Z,7.80
2023-03-27T07:49:42.153Z,8.00
2023-03-27T07:52:12.911Z,6.70
2023-03-27T07:55:01.899Z,6.60
2023-03-27T07:57:54.462Z,4.90
2023-03-27T08:00:26.178Z,4.90
2023-03-27T08:03:11.944Z,5.50
2023-03-27T08:05:43.414Z,7.00
2023-03-27T08:08:12.938Z,4.20
2023-03-27T08:10:53.948Z,3.80
2023-03-27T08:13:21.352Z,4.00
2023-03-27T08:15:48.811Z,3.60
2023-03-27T08:18:27.307Z,4.40
2023-03-27T08:20:58.672Z,4.40
2023-03-27T08:23:29.108Z,4.40
2023-03-27T08:26:05.932Z,4.60
2023-03-27T08:28:38.878Z,3.00
2023-03-27T08:31:15.288Z,3.00
2023-03-27T08:33:43.500Z,3.60
2023-03-27T08:36:14.862Z,2.80
2023-03-27T08:38:43.405Z,3.80
2023-03-27T08:41:24.733Z,3.50
2023-03-27T08:44:04.038Z,4.50
2023-03-27T08:47:06.151Z,4.70
2023-03-27T08:49:44.847Z,4.20
2023-03-27T08:52:27.469Z,4.00
2023-03-27T08:55:00.732Z,4.70
2023-03-27T08:57:35.201Z,4.80
2023-03-27T09:00:19.815Z,3.90
2023-03-27T09:03:01.296Z,4.30
2023-03-27T09:05:42.948Z,4.10
2023-03-27T09:08:25.975Z,4.80
2023-03-27T09:11:01.741Z,4.50
2023-03-27T09:13:49.137Z,4.10
2023-03-27T09:16:21.459Z,5.10
2023-03-27T09:19:00.732Z,4.40
2023-03-27T09:21:58.236Z,4.00
2023-03-27T09:24:52.423Z,3.90
2023-03-27T09:27:53.324Z,5.40
2023-03-27T09:30:43.884Z,3.60
2023-03-27T09:33:31.386Z,4.80
2023-03-27T09:35:59.313Z,4.20
2023-03-27T09:38:35.796Z,3.80
2023-03-27T09:41:11.806Z,4.20
2023-03-27T09:44:07.496Z,3.90
2023-03-27T09:46:42.878Z,3.00
2023-03-27T09:49:18.614Z,3.00
2023-03-27T09:51:52.332Z,3.20
2023-03-27T09:54:51.425Z,3.10
2023-03-27T09:57:18.752Z,3.30
2023-03-27T10:00:00.838Z,3.10
2023-03-27T10:02:31.938Z,3.70
2023-03-27T10:05:18.127Z,3.30
2023-03-27T10:07:47.598Z,2.80
2023-03-27T10:10:56.430Z,3.10
2023-03-27T10:13:48.592Z,3.20
2023-03-27T10:16:20.169Z,3.40
2023-03-27T10:18:59.998Z,2.80
2023-03-27T10:21:32.794Z,3.50
2023-03-27T10:24:17.561Z,3.20
2023-03-27T10:26:59.574Z,3.00
2023-03-27T10:31:59.091Z,3.00
2023-03-27T10:34:53.007Z,3.10
2023-03-27T10:37:41.207Z,3.60
2023-03-27T10:40:29.974Z,4.00
2023-03-27T10:43:06.046Z,3.20
2023-03-27T10:45:48.289Z,3.50
2023-03-27T10:50:58.010Z,4.00
2023-03-27T10:53:52.444Z,5.90
2023-03-27T10:56:31.452Z,4.00
2023-03-27T10:59:04.559Z,4.10
2023-03-27T11:01:42.699Z,3.60
2023-03-27T11:04:44.535Z,3.90
2023-03-27T11:07:20.923Z,5.00
2023-03-27T11:10:03.339Z,4.30
2023-03-27T11:12:37.204Z,4.10
2023-03-27T11:15:17.520Z,4.80
2023-03-27T11:17:52.405Z,3.60
2023-03-27T11:20:50.810Z,4.10
2023-03-27T11:23:33.527Z,3.80
2023-03-27T11:26:23.615Z,4.50
2023-03-27T11:29:04.365Z,4.70
2023-03-27T11:31:46.524Z,3.80
2023-03-27T11:34:36.662Z,4.10
2023-03-27T11:37:58.022Z,4.10
2023-03-27T11:40:39.566Z,4.80
2023-03-27T11:45:47.541Z,3.80
2023-03-27T11:48:57.186Z,3.80
2023-03-27T11:51:24.500Z,4.80
2023-03-27T11:54:07.714Z,4.10
2023-03-27T11:56:58.122Z,4.00
2023-03-27T11:59:48.789Z,4.00
2023-03-27T12:02:31.624Z,3.40
2023-03-27T12:05:06.647Z,3.90
2023-03-27T12:08:27.435Z,4.50
2023-03-27T12:10:59.175Z,3.50
2023-03-27T12:14:23.812Z,9.50
2023-03-27T12:17:16.225Z,3.60
2023-03-27T12:20:31.095Z,2.70
2023-03-27T12:23:18.372Z,2.90
2023-03-27T12:26:31.274Z,2.80
2023-03-27T12:29:23.511Z,2.60
2023-03-27T12:32:04.936Z,3.30
2023-03-27T12:34:59.987Z,2.50
2023-03-27T12:37:45.771Z,2.60
2023-03-27T12:42:54.371Z,2.60
2023-03-27T12:45:27.124Z,2.20
2023-03-27T12:48:10.680Z,2.70
2023-03-27T12:50:52.335Z,2.90
2023-03-27T12:53:20.099Z,3.10
2023-03-27T12:55:47.352Z,3.50
2023-03-27T12:58:34.650Z,3.20
2023-03-27T13:01:27.547Z,3.20
2023-03-27T13:04:11.165Z,2.90
2023-03-27T13:07:09.181Z,3.50
2023-03-27T13:10:25.763Z,2.70
2023-03-27T13:12:58.873Z,2.70
2023-03-27T13:16:07.217Z,2.50
2023-03-27T13:19:10.636Z,4.00
2023-03-27T13:22:28.174Z,3.80
2023-03-27T13:25:14.844Z,2.70
2023-03-27T13:27:47.828Z,2.70
2023-03-27T13:30:50.771Z,3.80
2023-03-27T13:36:28.254Z,2.60
2023-03-27T13:38:55.246Z,3.40
2023-03-27T13:41:44.050Z,3.50
2023-03-27T13:44:35.601Z,3.20
2023-03-27T13:47:34.018Z,2.80
2023-03-27T13:50:25.027Z,3.30
2023-03-27T13:53:24.701Z,2.80
2023-03-27T13:56:31.650Z,3.00
2023-03-27T13:59:40.037Z,2.60
2023-03-27T14:02:37.005Z,3.30
2023-03-27T14:05:22.029Z,3.20
2023-03-27T14:08:31.623Z,3.30
2023-03-27T14:12:21.005Z,3.50
2023-03-27T14:15:30.250Z,4.10
2023-03-27T14:18:18.209Z,3.50
2023-03-27T14:20:50.678Z,4.40
2023-03-27T14:23:28.549Z,3.50
2023-03-27T14:26:18.641Z,3.20
2023-03-27T14:28:54.567Z,2.80
2023-03-27T14:31:35.626Z,3.70
2023-03-27T14:34:35.307Z,3.00
2023-03-27T14:37:30.977Z,3.10
2023-03-27T14:40:11.087Z,2.90
2023-03-27T14:42:48.351Z,3.10
2023-03-27T14:45:22.176Z,3.60
2023-03-27T14:47:57.472Z,3.70
2023-03-27T14:50:27.959Z,2.90
2023-03-27T14:52:59.065Z,2.90
2023-03-27T14:55:36.159Z,3.00
2023-03-27T14:58:36.044Z,3.70
2023-03-27T15:01:05.490Z,3.50
2023-03-27T15:03:39.566Z,2.60
2023-03-27T15:06:27.318Z,3.00
2023-03-27T15:09:05.829Z,2.70
2023-03-27T15:12:00.790Z,3.60
2023-03-27T15:14:33.308Z,2.80
2023-03-27T15:17:15.960Z,2.50
2023-03-27T15:19:56.384Z,1.80
2023-03-27T15:22:47.857Z,2.10
2023-03-27T15:25:31.064Z,1.80
2023-03-27T15:28:04.628Z,2.50
2023-03-27T15:30:51.691Z,1.90
2023-03-27T15:33:35.817Z,2.10
2023-03-27T15:36:11.835Z,2.50
2023-03-27T15:38:41.884Z,2.10
2023-03-27T15:41:48.113Z,1.70
2023-03-27T15:44:26.107Z,1.70
2023-03-27T15:46:59.493Z,2.00
2023-03-27T15:49:41.535Z,1.90
2023-03-27T15:52:47.202Z,1.80
2023-03-27T15:55:43.038Z,2.00
2023-03-27T15:58:29.795Z,1.50
2023-03-27T16:01:18.494Z,2.30
2023-03-27T16:11:45.947Z,1.80
2023-03-27T16:14:30.517Z,2.10
2023-03-27T16:17:14.944Z,2.10
2023-03-27T16:19:43.538Z,1.80
2023-03-27T16:22:10.586Z,1.90
2023-03-27T16:24:37.644Z,2.30
2023-03-27T16:27:04.605Z,5.30
2023-03-27T16:29:31.537Z,6.00
2023-03-27T16:31:58.525Z,8.80
2023-03-27T16:34:25.442Z,4.00
2023-03-27T16:36:52.638Z,3.70
2023-03-27T16:39:19.766Z,6.10
2023-03-27T16:41:46.912Z,4.20
2023-03-27T16:44:13.857Z,5.20
2023-03-27T16:46:41.116Z,5.10
2023-03-27T16:49:12.170Z,3.80
2023-03-27T16:51:39.314Z,3.40
2023-03-27T16:54:06.578Z,3.20
2023-03-27T16:56:35.427Z,4.10
2023-03-27T16:59:03.037Z,3.80
2023-03-27T17:01:30.752Z,2.80
2023-03-27T17:03:57.738Z,3.60
2023-03-27T17:06:25.551Z,4.90
2023-03-27T17:08:56.031Z,4.50
2023-03-27T17:11:23.724Z,3.60
2023-03-27T17:13:51.029Z,6.50
2023-03-27T17:16:18.019Z,5.40
2023-03-27T17:18:45.186Z,6.10
2023-03-27T17:21:12.234Z,6.70
2023-03-27T17:23:41.155Z,5.40
2023-03-27T17:26:11.019Z,4.50
2023-03-27T17:28:39.780Z,2.70
2023-03-27T17:31:07.634Z,3.40
2023-03-27T17:33:34.688Z,2.90
2023-03-27T17:36:07.983Z,3.10
2023-03-27T17:38:35.085Z,3.60
2023-03-27T17:41:02.422Z,3.20
2023-03-27T17:43:29.897Z,3.00
2023-03-27T17:45:57.148Z,3.30
2023-03-27T17:48:24.520Z,4.10
2023-03-27T17:51:05.058Z,4.20
2023-03-27T17:53:37.155Z,4.70
2023-03-27T17:56:04.443Z,4.30
2023-03-27T17:58:34.589Z,5.40
2023-03-27T18:01:12.627Z,4.50
2023-03-27T18:03:39.666Z,4.80
2023-03-27T18:06:06.993Z,4.70
2023-03-27T18:08:34.414Z,5.40
2023-03-27T18:11:01.545Z,4.10
2023-03-27T18:13:30.641Z,4.30
2023-03-27T18:15:58.669Z,4.10
2023-03-27T18:18:26.430Z,4.10
2023-03-27T18:20:57.322Z,5.30
2023-03-27T18:23:24.287Z,11.40
2023-03-27T18:25:51.118Z,4.30
2023-03-27T18:28:17.965Z,5.80
2023-03-27T18:30:44.971Z,4.30
2023-03-27T18:33:12.440Z,3.40
2023-03-27T18:35:39.537Z,4.60
2023-03-27T18:38:06.912Z,3.90
2023-03-27T18:40:33.955Z,3.10
2023-03-27T18:43:01.387Z,3.50
2023-03-27T18:45:28.540Z,3.80
2023-03-27T18:47:55.783Z,3.20
2023-03-27T18:50:23.771Z,3.40
2023-03-27T18:52:50.916Z,4.00
2023-03-27T18:55:18.850Z,3.80
2023-03-27T18:57:46.357Z,4.50
2023-03-27T19:00:18.620Z,4.60
2023-03-27T19:02:46.503Z,3.90
2023-03-27T19:05:15.527Z,3.50
2023-03-27T19:07:44.462Z,3.20
2023-03-27T19:10:14.125Z,3.20
2023-03-27T19:12:46.072Z,3.50
2023-03-27T19:15:32.476Z,3.50
2023-03-27T19:18:05.908Z,3.50
2023-03-27T19:21:00.095Z,2.60
2023-03-27T19:23:45.939Z,2.50
2023-03-27T19:26:17.822Z,2.90
2023-03-27T19:28:48.042Z,2.90
2023-03-27T19:31:16.110Z,3.10
2023-03-27T19:33:43.640Z,3.20
2023-03-27T19:36:13.052Z,3.20
2023-03-27T19:38:40.420Z,2.90
2023-03-27T19:41:11.252Z,2.70
2023-03-27T19:43:41.120Z,3.40
2023-03-27T19:48:51.588Z,3.30
2023-03-27T19:51:37.631Z,3.60
2023-03-27T19:54:04.992Z,7.30
2023-03-27T19:56:32.597Z,3.00
2023-03-27T19:59:00.031Z,3.80
2023-03-27T20:01:28.749Z,3.20
2023-03-27T20:03:57.461Z,3.40
2023-03-27T20:06:26.348Z,3.40
2023-03-27T20:08:53.749Z,2.80
2023-03-27T20:11:20.810Z,4.00
2023-03-27T20:13:55.955Z,3.40
2023-03-27T20:16:26.650Z,3.90
2023-03-27T20:19:04.604Z,3.00
2023-03-27T20:21:35.339Z,2.90
2023-03-27T20:24:07.396Z,3.10
2023-03-27T20:26:39.576Z,3.20
2023-03-27T20:29:18.485Z,3.10
2023-03-27T20:31:46.241Z,3.60
2023-03-27T20:34:13.813Z,4.50
2023-03-27T20:36:40.972Z,4.40
2023-03-27T20:39:34.428Z,3.40
2023-03-27T20:42:01.472Z,3.10
2023-03-27T20:44:37.122Z,3.10
2023-03-27T20:47:12.389Z,3.60
2023-03-27T20:49:43.386Z,3.90
2023-03-27T20:52:13.333Z,4.30
2023-03-27T20:54:40.787Z,3.00
2023-03-27T20:57:10.404Z,3.30
2023-03-27T20:59:37.554Z,2.90
2023-03-27T21:02:05.382Z,3.00
2023-03-27T21:04:32.685Z,3.10
2023-03-27T21:06:59.746Z,2.90
2023-03-27T21:09:27.810Z,3.20
2023-03-27T21:11:55.927Z,3.00
2023-03-27T21:14:23.450Z,3.20
2023-03-27T21:16:50.601Z,3.50
2023-03-27T21:19:20.024Z,3.60
2023-03-27T21:21:47.432Z,3.20
2023-03-27T21:24:14.532Z,3.00
2023-03-27T21:26:42.000Z,3.00
2023-03-27T21:29:11.104Z,2.90
2023-03-27T21:31:39.541Z,3.40
2023-03-27T21:34:07.463Z,3.50
2023-03-27T21:36:35.295Z,3.20
2023-03-27T21:39:02.387Z,3.60
2023-03-27T21:41:29.694Z,4.70
2023-03-27T21:43:56.705Z,6.10
2023-03-27T21:46:23.892Z,6.00
2023-03-27T21:48:51.717Z,4.90
2023-03-27T21:51:19.524Z,4.00
2023-03-27T21:53:46.972Z,5.20
2023-03-27T21:56:14.124Z,4.70
2023-03-27T21:58:41.052Z,4.50
2023-03-27T22:01:08.468Z,5.00
2023-03-27T22:03:35.779Z,4.90
2023-03-27T22:06:12.603Z,5.10
2023-03-27T22:08:43.040Z,3.80
2023-03-27T22:11:11.912Z,4.50
2023-03-27T22:13:39.509Z,4.40
2023-03-27T22:16:15.037Z,4.70
2023-03-27T22:18:43.369Z,4.20
2023-03-27T22:21:25.560Z,4.90
2023-03-27T22:23:54.071Z,4.90
2023-03-27T22:26:33.398Z,4.50
2023-03-27T22:29:00.633Z,5.10
2023-03-27T22:31:29.442Z,5.10
2023-03-27T22:33:56.788Z,5.00
2023-03-27T22:36:23.981Z,5.20
2023-03-27T22:38:53.517Z,5.30
2023-03-27T22:41:20.511Z,6.20
2023-03-27T22:43:49.665Z,6.70
2023-03-27T22:46:19.686Z,5.90
2023-03-27T22:51:14.461Z,5.40
2023-03-27T22:53:42.008Z,6.00
2023-03-27T22:56:10.043Z,5.40
2023-03-27T22:58:37.135Z,5.40
2023-03-27T23:01:05.928Z,5.20
2023-03-27T23:03:33.464Z,5.10
2023-03-27T23:06:00.937Z,4.70
2023-03-27T23:08:28.725Z,4.90
2023-03-27T23:11:01.319Z,5.40
2023-03-27T23:13:30.182Z,5.80
2023-03-27T23:15:57.774Z,5.80
2023-03-27T23:18:25.644Z,5.60
2023-03-27T23:20:58.021Z,6.20
2023-03-27T23:23:26.628Z,5.80
2023-03-27T23:25:54.272Z,5.60
2023-03-27T23:28:21.815Z,5.20
2023-03-27T23:30:56.793Z,5.70
2023-03-27T23:33:25.438Z,7.10
2023-03-27T23:35:54.158Z,8.60
2023-03-27T23:38:21.097Z,7.30
2023-03-27T23:40:54.902Z,7.00
2023-03-27T23:43:21.799Z,7.40
2023-03-27T23:45:48.753Z,7.00
2023-03-27T23:48:15.855Z,7.00
2023-03-27T23:50:42.815Z,6.70
2023-03-27T23:53:09.671Z,7.70
2023-03-27T23:55:36.603Z,7.90
2023-03-27T23:58:04.538Z,8.40
